createdAt,value
2018-03-30T00:01:45.075Z,2.5
2018-03-30T00:04:45.055Z,2.5
2018-03-30T00:07:45.040Z,2.4
2018-03-30T00:10:45.083Z,2.7
2018-03-30T00:13:45.026Z,2.6
2018-03-30T00:16:45.077Z,2.8
2018-03-30T00:19:45.017Z,2.6
2018-03-30T00:22:45.043Z,2.6
2018-03-30T00:25:45.055Z,2.5
2018-03-30T00:28:45.018Z,2.4
2018-03-30T00:31:45.054Z,2.4
2018-03-30T00:34:45.113Z,2.4
2018-03-30T00:37:45.016Z,2.8
2018-03-30T00:40:45.042Z,2.7
2018-03-30T00:43:45.035Z,2.6
2018-03-30T00:46:45.070Z,2.4
2018-03-30T00:49:45.035Z,2.3
2018-03-30T00:52:45.024Z,2.5
2018-03-30T00:55:45.284Z,2.4
2018-03-30T00:58:45.064Z,2.4
2018-03-30T01:01:45.034Z,2.4
2018-03-30T01:04:45.028Z,2.4
2018-03-30T01:07:45.085Z,2.3
2018-03-30T01:10:45.019Z,2.3
2018-03-30T01:13:45.024Z,2.4
2018-03-30T01:16:45.022Z,2.3
2018-03-30T01:19:45.010Z,2.4
2018-03-30T01:22:45.043Z,2.4
2018-03-30T01:25:45.001Z,2.3
2018-03-30T01:28:45.061Z,2.3
2018-03-30T01:31:45.017Z,2.3
2018-03-30T01:34:44.988Z,2.4
2018-03-30T01:37:45.009Z,2.4
2018-03-30T01:40:45.001Z,2.3
2018-03-30T01:43:45.047Z,2.5
2018-03-30T01:46:45.038Z,2.3
2018-03-30T01:49:45.007Z,2.3
2018-03-30T01:52:45.036Z,2.6
2018-03-30T01:55:45.035Z,2.5
2018-03-30T01:58:44.995Z,2.5
2018-03-30T02:01:45.041Z,2.3
2018-03-30T02:04:44.993Z,2.4
2018-03-30T02:07:45.061Z,2.3
2018-03-30T02:10:45.096Z,2.3
2018-03-30T02:13:44.987Z,2.3
2018-03-30T02:16:45.118Z,2.4
2018-03-30T02:19:45.259Z,2.3
2018-03-30T02:22:44.987Z,2.3
2018-03-30T02:25:44.972Z,2.4
2018-03-30T02:28:44.982Z,2.5
2018-03-30T02:31:45.004Z,2.4
2018-03-30T02:34:45.008Z,2.4
2018-03-30T02:37:45.009Z,2.3
2018-03-30T02:40:45.030Z,2.3
2018-03-30T02:43:44.992Z,2.3
2018-03-30T02:46:45.032Z,2.3
2018-03-30T02:49:45.068Z,2.3
2018-03-30T02:52:45.024Z,2.3
2018-03-30T02:55:45.025Z,2.3
2018-03-30T02:58:45.003Z,2.3
2018-03-30T03:01:44.988Z,2.5
2018-03-30T03:04:45.007Z,2.5
2018-03-30T03:07:45.077Z,2.4
2018-03-30T03:10:44.955Z,2.3
2018-03-30T03:13:44.971Z,2.3
2018-03-30T03:16:44.990Z,2.4
2018-03-30T03:19:44.982Z,2.3
2018-03-30T03:22:44.978Z,2.2
2018-03-30T03:25:44.975Z,2.5
2018-03-30T03:28:45.489Z,2.5
2018-03-30T03:31:45.029Z,2.4
2018-03-30T03:34:44.963Z,2.4
2018-03-30T03:37:44.990Z,2.3
2018-03-30T03:40:44.961Z,2.2
2018-03-30T03:43:44.948Z,2.3
2018-03-30T03:46:44.988Z,2.3
2018-03-30T03:49:44.962Z,2.3
2018-03-30T03:52:45.011Z,2.2
2018-03-30T03:55:44.959Z,2.2
2018-03-30T03:58:44.957Z,2.2
2018-03-30T04:01:45.031Z,2.3
2018-03-30T04:04:45.000Z,2.2
2018-03-30T04:07:45.009Z,2.1
2018-03-30T04:10:44.976Z,2.4
2018-03-30T04:13:44.961Z,2.3
2018-03-30T04:16:45.090Z,2.3
2018-03-30T04:19:44.949Z,2.2
2018-03-30T04:22:44.979Z,2.3
2018-03-30T04:25:44.972Z,2.2
2018-03-30T04:28:44.943Z,2.1
2018-03-30T04:31:45.117Z,2.1
2018-03-30T04:34:44.937Z,2.1
2018-03-30T04:37:45.027Z,2.2
2018-03-30T04:40:44.966Z,2.2
2018-03-30T04:43:44.941Z,2
2018-03-30T04:46:44.952Z,2.1
2018-03-30T04:49:44.929Z,2
2018-03-30T04:52:45.009Z,2.1
2018-03-30T04:55:44.951Z,2.1
2018-03-30T04:58:44.948Z,2.2
2018-03-30T05:01:44.974Z,2.2
2018-03-30T05:04:44.930Z,2.1
2018-03-30T05:07:44.954Z,2.1
2018-03-30T05:10:44.934Z,2.1
2018-03-30T05:13:44.934Z,2.2
2018-03-30T05:16:44.954Z,2.1
2018-03-30T05:19:44.927Z,2.1
2018-03-30T05:22:44.991Z,2.2
2018-03-30T05:25:44.920Z,2.3
2018-03-30T05:28:44.928Z,2.2
2018-03-30T05:31:44.978Z,2.2
2018-03-30T05:34:44.928Z,2.1
2018-03-30T05:37:44.918Z,2.1
2018-03-30T05:40:44.962Z,2.2
2018-03-30T05:43:44.938Z,2.1
2018-03-30T05:46:45.002Z,2.2
2018-03-30T05:49:44.930Z,2.1
2018-03-30T05:52:44.944Z,2.1
2018-03-30T05:55:45.206Z,2.1
2018-03-30T05:58:44.956Z,2.2
2018-03-30T06:01:44.932Z,2.1
2018-03-30T06:04:44.911Z,2.1
2018-03-30T06:07:44.914Z,2
2018-03-30T06:10:44.945Z,2.1
2018-03-30T06:13:44.938Z,2
2018-03-30T06:16:45.001Z,2
2018-03-30T06:19:44.905Z,2
2018-03-30T06:22:44.954Z,2.1
2018-03-30T06:25:44.909Z,2.1
2018-03-30T06:28:44.991Z,2
2018-03-30T06:31:44.917Z,2
2018-03-30T06:34:44.917Z,2
2018-03-30T06:37:44.930Z,2
2018-03-30T06:40:44.922Z,2
2018-03-30T06:43:44.905Z,2.1
2018-03-30T06:46:44.930Z,2.1
2018-03-30T06:49:44.891Z,2
2018-03-30T06:52:44.940Z,2
2018-03-30T06:55:44.939Z,2
2018-03-30T06:58:44.978Z,1.9
2018-03-30T07:01:44.890Z,2
2018-03-30T07:04:44.913Z,2
2018-03-30T07:07:44.907Z,2
2018-03-30T07:10:44.910Z,1.9
2018-03-30T07:13:44.883Z,1.9
2018-03-30T07:16:44.896Z,1.9
2018-03-30T07:19:44.887Z,1.9
2018-03-30T07:22:44.892Z,2
2018-03-30T07:25:45.022Z,2
2018-03-30T07:28:44.883Z,2
2018-03-30T07:31:44.882Z,1.9
2018-03-30T07:34:44.933Z,1.9
2018-03-30T07:37:44.886Z,1.8
2018-03-30T07:40:44.873Z,1.8
2018-03-30T07:43:45.107Z,1.8
2018-03-30T07:46:44.932Z,1.7
2018-03-30T07:49:44.913Z,1.8
2018-03-30T07:52:44.891Z,1.9
2018-03-30T07:55:44.881Z,1.9
2018-03-30T07:58:44.883Z,1.8
2018-03-30T08:01:44.865Z,1.8
2018-03-30T08:04:44.960Z,1.8
2018-03-30T08:07:44.898Z,1.8
2018-03-30T08:10:44.907Z,2
2018-03-30T08:13:44.899Z,1.9
2018-03-30T08:16:45.028Z,1.9
2018-03-30T08:19:45.713Z,1.8
2018-03-30T08:22:44.906Z,1.9
2018-03-30T08:25:44.889Z,1.8
2018-03-30T08:28:44.898Z,1.8
2018-03-30T08:31:44.879Z,1.8
2018-03-30T08:34:44.971Z,1.9
2018-03-30T08:37:44.877Z,1.8
2018-03-30T08:40:44.870Z,1.7
2018-03-30T08:43:44.865Z,1.8
2018-03-30T08:46:44.869Z,1.8
2018-03-30T08:49:45.031Z,1.9
2018-03-30T08:52:44.884Z,3.5
2018-03-30T08:55:44.875Z,4.8
2018-03-30T08:58:44.891Z,7.7
2018-03-30T09:01:44.858Z,7.4
2018-03-30T09:04:44.887Z,6.2
2018-03-30T09:07:45.071Z,6.4
2018-03-30T09:10:45.140Z,4.9
2018-03-30T09:13:44.904Z,4.7
2018-03-30T09:16:44.870Z,4.2
2018-03-30T09:19:44.889Z,4.1
2018-03-30T09:22:44.889Z,4.1
2018-03-30T09:25:45.037Z,4.2
2018-03-30T09:28:44.981Z,5.3
2018-03-30T09:31:45.240Z,4.6
2018-03-30T09:34:45.297Z,5.2
2018-03-30T09:37:45.317Z,4.3
2018-03-30T09:40:45.341Z,4.3
2018-03-30T09:43:45.183Z,4
2018-03-30T09:46:45.211Z,3.7
2018-03-30T09:49:46.034Z,4.6
2018-03-30T09:52:47.258Z,5.6
2018-03-30T09:55:45.078Z,6.1
2018-03-30T09:58:45.096Z,6
2018-03-30T10:01:44.864Z,7.3
2018-03-30T10:04:44.885Z,7.5
2018-03-30T10:07:44.955Z,9.1
2018-03-30T10:10:44.853Z,8.4
2018-03-30T10:13:44.856Z,8.9
2018-03-30T10:16:44.849Z,9.6
2018-03-30T10:19:44.967Z,8
2018-03-30T10:22:44.887Z,6.4
2018-03-30T10:25:44.916Z,6.9
2018-03-30T10:28:44.843Z,6
2018-03-30T10:31:44.836Z,5.6
2018-03-30T10:34:44.854Z,4.5
2018-03-30T10:37:44.956Z,4.7
2018-03-30T10:40:44.919Z,4.8
2018-03-30T10:43:44.859Z,5.1
2018-03-30T10:46:44.876Z,5.5
2018-03-30T10:49:44.874Z,5.5
2018-03-30T10:52:44.882Z,4.4
2018-03-30T10:55:44.888Z,4.4
2018-03-30T10:58:44.849Z,4.4
2018-03-30T11:01:44.814Z,3.6
2018-03-30T11:04:44.834Z,4.6
2018-03-30T11:07:44.840Z,4.5
2018-03-30T11:10:44.837Z,4
2018-03-30T11:13:44.831Z,3.1
2018-03-30T11:16:44.867Z,2.9
2018-03-30T11:19:44.825Z,3.4
2018-03-30T11:22:44.829Z,4.4
2018-03-30T11:25:44.833Z,5.2
2018-03-30T11:28:44.808Z,4.6
2018-03-30T11:31:44.849Z,4.1
2018-03-30T11:34:44.874Z,4.3
2018-03-30T11:37:44.928Z,4.3
2018-03-30T11:40:44.891Z,4.4
2018-03-30T11:43:44.817Z,3.6
2018-03-30T11:46:44.894Z,4.4
2018-03-30T11:49:44.821Z,4.6
2018-03-30T11:52:44.812Z,3.9
2018-03-30T11:55:44.876Z,3.1
2018-03-30T11:58:44.886Z,3
2018-03-30T12:01:44.831Z,2.9
2018-03-30T12:04:44.799Z,3
2018-03-30T12:07:44.812Z,2.9
2018-03-30T12:10:44.785Z,3.3
2018-03-30T12:13:44.789Z,2.7
2018-03-30T12:16:44.887Z,2.6
2018-03-30T12:19:44.828Z,2.3
2018-03-30T12:22:44.807Z,2.4
2018-03-30T12:25:44.801Z,2.4
2018-03-30T12:28:44.782Z,2.3
2018-03-30T12:31:44.821Z,2.5
2018-03-30T12:34:44.799Z,3.7
2018-03-30T12:37:44.830Z,3.6
2018-03-30T12:40:44.870Z,3
2018-03-30T12:43:44.820Z,3.6
2018-03-30T12:46:45.095Z,4.5
2018-03-30T12:49:44.801Z,3.8
2018-03-30T12:52:44.792Z,3.4
2018-03-30T12:55:44.802Z,3.4
2018-03-30T12:58:44.810Z,2.9
2018-03-30T13:01:44.835Z,2.9
2018-03-30T13:04:44.800Z,2.6
2018-03-30T13:07:44.807Z,3.5
2018-03-30T13:10:44.799Z,3.9
2018-03-30T13:13:44.838Z,3
2018-03-30T13:16:44.787Z,3.2
2018-03-30T13:19:44.800Z,3.2
2018-03-30T13:22:45.054Z,2.6
2018-03-30T13:25:44.762Z,2.9
2018-03-30T13:28:44.839Z,2.5
2018-03-30T13:31:44.782Z,2.7
2018-03-30T13:34:44.780Z,2.9
2018-03-30T13:37:44.789Z,2.5
2018-03-30T13:40:44.786Z,2.3
2018-03-30T13:43:44.790Z,2.2
2018-03-30T13:46:44.858Z,1.9
2018-03-30T13:49:44.852Z,2.4
2018-03-30T13:52:44.826Z,2.3
2018-03-30T13:55:44.768Z,2.3
2018-03-30T13:58:44.840Z,1.9
2018-03-30T14:01:44.778Z,1.9
2018-03-30T14:04:44.791Z,2
2018-03-30T14:07:44.766Z,2
2018-03-30T14:10:44.764Z,1.9
2018-03-30T14:13:45.105Z,1.9
2018-03-30T14:16:44.837Z,1.9
2018-03-30T14:19:44.902Z,1.7
2018-03-30T14:22:44.948Z,1.7
2018-03-30T14:25:44.770Z,2.1
2018-03-30T14:28:45.055Z,1.9
2018-03-30T14:31:44.787Z,1.7
2018-03-30T14:34:45.363Z,3.4
2018-03-30T14:37:44.923Z,4.1
2018-03-30T14:40:44.791Z,4.7
2018-03-30T14:43:44.800Z,7.6
2018-03-30T14:46:44.815Z,6.6
2018-03-30T14:49:44.798Z,6.5
2018-03-30T14:52:44.786Z,4.6
2018-03-30T14:55:44.760Z,4.4
2018-03-30T14:58:44.761Z,4.4
2018-03-30T15:01:44.753Z,5.1
2018-03-30T15:04:44.792Z,5.3
2018-03-30T15:07:44.754Z,4.4
2018-03-30T15:12:54.301Z,5.6
2018-03-30T15:15:54.320Z,4.8
2018-03-30T15:22:30.488Z,4.7
2018-03-30T15:25:31.467Z,4.1
2018-03-30T15:28:30.546Z,3.5
2018-03-30T15:31:30.623Z,2.9
2018-03-30T15:34:30.498Z,3.1
2018-03-30T15:37:30.515Z,2.8
2018-03-30T15:40:30.551Z,3.2
2018-03-30T15:43:30.542Z,3.6
2018-03-30T15:46:30.552Z,4.6
2018-03-30T15:49:30.526Z,3.1
2018-03-30T15:52:30.530Z,3.3
2018-03-30T15:55:30.530Z,2.9
2018-03-30T15:58:30.517Z,3.6
2018-03-30T16:01:30.556Z,3.8
2018-03-30T16:04:30.522Z,3.4
2018-03-30T16:07:30.497Z,3.4
2018-03-30T16:10:30.511Z,2.9
2018-03-30T16:13:30.557Z,2.3
2018-03-30T16:16:30.569Z,2.9
2018-03-30T16:19:30.569Z,3.3
2018-03-30T16:22:30.502Z,2.4
2018-03-30T16:25:30.532Z,2.7
2018-03-30T16:28:30.519Z,4.2
2018-03-30T16:31:30.492Z,4.3
2018-03-30T16:34:30.510Z,4.2
2018-03-30T16:37:30.517Z,3.8
2018-03-30T16:40:30.491Z,4
2018-03-30T16:43:30.507Z,4.4
2018-03-30T16:46:30.498Z,6.6
2018-03-30T16:49:30.603Z,6.1
2018-03-30T16:52:30.527Z,5.8
2018-03-30T16:55:30.514Z,5.8
2018-03-30T16:58:30.514Z,5.4
2018-03-30T17:01:30.601Z,4
2018-03-30T17:04:30.474Z,4.3
2018-03-30T17:07:30.468Z,4.2
2018-03-30T17:10:30.538Z,4.3
2018-03-30T17:13:30.468Z,4.2
2018-03-30T17:16:30.470Z,3.7
2018-03-30T17:19:30.478Z,4
2018-03-30T17:22:30.539Z,3.9
2018-03-30T17:25:30.523Z,3.2
2018-03-30T17:28:30.723Z,3.2
2018-03-30T17:31:30.483Z,3.5
2018-03-30T17:34:30.481Z,3.1
2018-03-30T17:37:30.483Z,3.3
2018-03-30T17:40:30.493Z,3.5
2018-03-30T17:43:30.491Z,2.8
2018-03-30T17:46:30.466Z,3
2018-03-30T17:49:30.507Z,3.3
2018-03-30T17:52:30.720Z,5.4
2018-03-30T17:55:30.469Z,6.6
2018-03-30T17:58:31.188Z,4.6
2018-03-30T18:01:30.472Z,4
2018-03-30T18:04:32.397Z,3.5
2018-03-30T18:07:30.545Z,3.7
2018-03-30T18:10:30.457Z,3.1
2018-03-30T18:13:31.105Z,3.4
2018-03-30T18:16:30.740Z,3.7
2018-03-30T18:19:30.620Z,3.1
2018-03-30T18:22:30.532Z,2.7
2018-03-30T18:25:31.060Z,3.3
2018-03-30T18:28:30.511Z,3.8
2018-03-30T18:31:30.459Z,3.1
2018-03-30T18:34:30.475Z,2.6
2018-03-30T18:37:30.478Z,2.9
2018-03-30T18:40:30.469Z,2.7
2018-03-30T18:46:03.055Z,2.7
2018-03-30T18:49:03.072Z,2.2
2018-03-30T18:52:03.086Z,2.2
2018-03-30T18:55:03.107Z,3
2018-03-30T19:09:18.158Z,5.4
2018-03-30T19:14:38.181Z,5.7
2018-03-30T19:17:38.105Z,5.2
2018-03-30T19:20:38.160Z,5.4
2018-03-30T19:23:38.080Z,4.4
2018-03-30T19:26:38.076Z,4.1
2018-03-30T19:32:13.668Z,4.2
2018-03-30T19:35:13.707Z,4.7
2018-03-30T19:38:13.668Z,4.2
2018-03-30T19:41:13.688Z,3.4
2018-03-30T19:47:56.269Z,2.2
2018-03-30T19:56:07.415Z,3.2
2018-03-30T19:59:07.081Z,3
2018-03-30T20:02:07.123Z,2.8
2018-03-30T20:05:06.718Z,2.8
2018-03-30T20:08:07.415Z,3.9
2018-03-30T20:11:07.084Z,3.3
2018-03-30T20:14:07.079Z,4.1
2018-03-30T20:17:07.076Z,3.5
2018-03-30T20:20:07.089Z,3.8
2018-03-30T20:23:07.268Z,3.2
2018-03-30T20:26:07.230Z,3.2
2018-03-30T20:29:06.494Z,2.8
2018-03-30T20:32:06.475Z,3.2
2018-03-30T20:35:06.476Z,3.2
2018-03-30T20:38:06.464Z,3.5
2018-03-30T20:41:06.468Z,3.2
2018-03-30T20:44:06.457Z,3.1
2018-03-30T20:47:06.490Z,3.5
2018-03-30T20:50:06.505Z,2.9
2018-03-30T20:53:06.572Z,2.8
2018-03-30T20:56:06.751Z,2.8
2018-03-30T20:59:06.511Z,3.1
2018-03-30T21:02:06.468Z,2.6
2018-03-30T21:05:06.468Z,3.1
2018-03-30T21:08:06.450Z,3.1
2018-03-30T21:11:06.451Z,2.9
2018-03-30T21:14:06.842Z,2.3
2018-03-30T21:17:06.450Z,2.1
2018-03-30T21:20:06.477Z,2.3
2018-03-30T21:23:06.447Z,2.8
2018-03-30T21:26:06.441Z,2.6
2018-03-30T21:29:06.834Z,3
2018-03-30T21:32:06.435Z,2.8
2018-03-30T21:35:06.541Z,2.2
2018-03-30T21:38:06.442Z,2.3
2018-03-30T21:41:06.452Z,2
2018-03-30T21:44:06.492Z,1.9
2018-03-30T21:47:06.695Z,1.8
2018-03-30T21:50:06.488Z,2
2018-03-30T21:53:06.442Z,2.2
2018-03-30T21:56:06.448Z,2
2018-03-30T21:59:06.426Z,1.9
2018-03-30T22:02:06.583Z,1.8
2018-03-30T22:05:06.485Z,2.5
2018-03-30T22:08:06.454Z,2.1
2018-03-30T22:11:06.424Z,2.9
2018-03-30T22:14:06.448Z,2.5
2018-03-30T22:17:06.465Z,2.8
2018-03-30T22:20:06.458Z,3
2018-03-30T22:23:06.441Z,2.4
2018-03-30T22:26:07.137Z,2.1
2018-03-30T22:29:06.488Z,2.1
2018-03-30T22:32:06.439Z,1.9
2018-03-30T22:35:06.437Z,1.7
2018-03-30T22:38:06.449Z,1.8
2018-03-30T22:41:06.410Z,1.7
2018-03-30T22:44:06.429Z,1.8
2018-03-30T22:47:06.399Z,1.8
2018-03-30T22:50:06.522Z,1.7
2018-03-30T22:53:06.458Z,1.7
2018-03-30T22:56:06.390Z,1.7
2018-03-30T22:59:06.434Z,1.6
2018-03-30T23:02:06.486Z,1.7
2018-03-30T23:05:06.396Z,1.8
2018-03-30T23:08:06.394Z,1.8
2018-03-30T23:11:06.394Z,1.7
2018-03-30T23:14:06.379Z,1.7
2018-03-30T23:17:06.412Z,1.7
2018-03-30T23:20:06.391Z,1.6
2018-03-30T23:23:06.443Z,1.5
2018-03-30T23:26:06.387Z,1.6
2018-03-30T23:29:06.450Z,1.7
2018-03-30T23:32:06.418Z,1.8
2018-03-30T23:35:06.408Z,1.6
2018-03-30T23:38:06.412Z,1.7
2018-03-30T23:41:06.379Z,1.7
2018-03-30T23:44:06.409Z,1.6
2018-03-30T23:47:06.393Z,1.7
2018-03-30T23:50:06.416Z,1.7
2018-03-30T23:53:06.447Z,1.6
2018-03-30T23:56:06.402Z,1.8
2018-03-30T23:59:06.471Z,1.6
